Goldsboro, Texas
Current Conditions -  °F | °C
As of 3:15 PM on Sunday 23 Nov 2014 (Local Time) from KCOM Reporting Station
Clear Clear  
Wind Chill: 74°   Ceiling: Unl
Heat Index: 74°   Visibility: 10mi
Dew Point: 40°   Wind: 21mph
Humidity: 29%   Direction: 270°W
Pressure: 29.54"   Gusts: 29mph
Location:  32.06°N, 99.68°W
Report Text: KCOM 232115Z AUTO 27018G25KT 10SM CLR 23/04 A2954 RMK AO2 T02340042
Loading
Personal Weather Stations






























Interactive Weather Map New forecast layout! Learn more

10-Day Weather Forecast

Advertisements
Track Severe Weather on mobile